sensor_id;sensor_type;location;lat;lon;timestamp;P1;durP1;ratioP1;P2;durP2;ratioP2
39994;SDS011;25686;51.908;10.418;2022-12-24T00:00:29;5.57;;;3.10;;
39994;SDS011;25686;51.908;10.418;2022-12-24T00:02:30;6.95;;;2.88;;
39994;SDS011;25686;51.908;10.418;2022-12-24T00:04:31;6.18;;;2.45;;
39994;SDS011;25686;51.908;10.418;2022-12-24T00:06:32;5.38;;;2.17;;
39994;SDS011;25686;51.908;10.418;2022-12-24T00:08:33;4.70;;;2.35;;
39994;SDS011;25686;51.908;10.418;2022-12-24T00:10:34;5.57;;;1.98;;
39994;SDS011;25686;51.908;10.418;2022-12-24T00:12:35;4.70;;;2.30;;
39994;SDS011;25686;51.908;10.418;2022-12-24T00:14:36;5.40;;;2.20;;
39994;SDS011;25686;51.908;10.418;2022-12-24T00:16:37;5.90;;;2.40;;
39994;SDS011;25686;51.908;10.418;2022-12-24T00:18:38;7.70;;;2.70;;
39994;SDS011;25686;51.908;10.418;2022-12-24T00:20:39;5.03;;;2.65;;
39994;SDS011;25686;51.908;10.418;2022-12-24T00:22:40;10.57;;;3.05;;
39994;SDS011;25686;51.908;10.418;2022-12-24T00:24:41;10.40;;;3.60;;
39994;SDS011;25686;51.908;10.418;2022-12-24T00:26:42;11.25;;;3.60;;
39994;SDS011;25686;51.908;10.418;2022-12-24T00:28:43;11.35;;;3.80;;
39994;SDS011;25686;51.908;10.418;2022-12-24T00:30:44;6.32;;;3.40;;
39994;SDS011;25686;51.908;10.418;2022-12-24T00:32:45;8.63;;;3.40;;
39994;SDS011;25686;51.908;10.418;2022-12-24T00:34:46;6.57;;;3.38;;
39994;SDS011;25686;51.908;10.418;2022-12-24T00:36:47;9.90;;;3.60;;
39994;SDS011;25686;51.908;10.418;2022-12-24T00:38:48;7.05;;;2.85;;
39994;SDS011;25686;51.908;10.418;2022-12-24T00:40:49;5.70;;;2.90;;
39994;SDS011;25686;51.908;10.418;2022-12-24T00:42:50;9.23;;;3.50;;
39994;SDS011;25686;51.908;10.418;2022-12-24T00:44:52;4.75;;;2.90;;
39994;SDS011;25686;51.908;10.418;2022-12-24T00:46:53;8.57;;;2.80;;
39994;SDS011;25686;51.908;10.418;2022-12-24T00:48:54;6.80;;;3.15;;
39994;SDS011;25686;51.908;10.418;2022-12-24T00:50:55;6.28;;;2.67;;
39994;SDS011;25686;51.908;10.418;2022-12-24T00:52:56;6.63;;;2.80;;
39994;SDS011;25686;51.908;10.418;2022-12-24T00:54:57;6.57;;;2.83;;
39994;SDS011;25686;51.908;10.418;2022-12-24T00:56:59;8.30;;;2.50;;
39994;SDS011;25686;51.908;10.418;2022-12-24T00:59:00;5.75;;;2.40;;
39994;SDS011;25686;51.908;10.418;2022-12-24T01:01:02;5.03;;;2.53;;
39994;SDS011;25686;51.908;10.418;2022-12-24T01:03:03;3.25;;;1.90;;
39994;SDS011;25686;51.908;10.418;2022-12-24T01:05:04;4.35;;;2.20;;
39994;SDS011;25686;51.908;10.418;2022-12-24T01:07:11;6.68;;;2.03;;
39994;SDS011;25686;51.908;10.418;2022-12-24T01:09:12;4.40;;;1.95;;
39994;SDS011;25686;51.908;10.418;2022-12-24T01:11:13;3.80;;;1.80;;
39994;SDS011;25686;51.908;10.418;2022-12-24T01:13:14;4.32;;;2.03;;
39994;SDS011;25686;51.908;10.418;2022-12-24T01:15:15;5.85;;;2.05;;
39994;SDS011;25686;51.908;10.418;2022-12-24T01:17:16;3.67;;;1.83;;
39994;SDS011;25686;51.908;10.418;2022-12-24T01:19:17;3.35;;;1.98;;
39994;SDS011;25686;51.908;10.418;2022-12-24T01:21:17;2.85;;;1.77;;
39994;SDS011;25686;51.908;10.418;2022-12-24T01:23:18;4.88;;;1.67;;
39994;SDS011;25686;51.908;10.418;2022-12-24T01:25:19;5.68;;;1.42;;
39994;SDS011;25686;51.908;10.418;2022-12-24T01:27:20;2.70;;;1.45;;
39994;SDS011;25686;51.908;10.418;2022-12-24T01:29:21;2.47;;;1.70;;
39994;SDS011;25686;51.908;10.418;2022-12-24T01:31:22;4.25;;;2.10;;
39994;SDS011;25686;51.908;10.418;2022-12-24T01:33:23;8.38;;;2.00;;
39994;SDS011;25686;51.908;10.418;2022-12-24T01:35:27;2.97;;;1.83;;
39994;SDS011;25686;51.908;10.418;2022-12-24T01:37:28;5.00;;;2.28;;
39994;SDS011;25686;51.908;10.418;2022-12-24T01:39:29;6.32;;;2.50;;
39994;SDS011;25686;51.908;10.418;2022-12-24T01:41:31;4.10;;;2.20;;
39994;SDS011;25686;51.908;10.418;2022-12-24T01:43:50;6.63;;;2.20;;
39994;SDS011;25686;51.908;10.418;2022-12-24T01:45:52;5.57;;;2.05;;
39994;SDS011;25686;51.908;10.418;2022-12-24T01:47:53;6.45;;;2.08;;
39994;SDS011;25686;51.908;10.418;2022-12-24T01:50:01;3.38;;;1.73;;
39994;SDS011;25686;51.908;10.418;2022-12-24T01:52:07;4.93;;;1.83;;
39994;SDS011;25686;51.908;10.418;2022-12-24T01:54:10;7.45;;;2.00;;
39994;SDS011;25686;51.908;10.418;2022-12-24T01:56:11;4.03;;;2.10;;
39994;SDS011;25686;51.908;10.418;2022-12-24T01:58:13;1.80;;;1.70;;
39994;SDS011;25686;51.908;10.418;2022-12-24T02:00:16;6.88;;;2.03;;
39994;SDS011;25686;51.908;10.418;2022-12-24T02:02:17;2.33;;;1.50;;
39994;SDS011;25686;51.908;10.418;2022-12-24T02:06:19;3.45;;;1.70;;
39994;SDS011;25686;51.908;10.418;2022-12-24T02:08:21;3.55;;;1.70;;
39994;SDS011;25686;51.908;10.418;2022-12-24T02:10:22;4.85;;;1.50;;
39994;SDS011;25686;51.908;10.418;2022-12-24T02:12:24;4.50;;;1.52;;
39994;SDS011;25686;51.908;10.418;2022-12-24T02:14:26;3.55;;;1.42;;
39994;SDS011;25686;51.908;10.418;2022-12-24T02:18:44;3.10;;;1.65;;
39994;SDS011;25686;51.908;10.418;2022-12-24T02:25:22;1.17;;;1.05;;
39994;SDS011;25686;51.908;10.418;2022-12-24T02:27:33;4.70;;;1.30;;
39994;SDS011;25686;51.908;10.418;2022-12-24T02:34:08;5.38;;;1.42;;
39994;SDS011;25686;51.908;10.418;2022-12-24T02:36:22;6.43;;;1.60;;
39994;SDS011;25686;51.908;10.418;2022-12-24T02:38:32;3.28;;;1.42;;
39994;SDS011;25686;51.908;10.418;2022-12-24T02:40:51;4.68;;;1.70;;
39994;SDS011;25686;51.908;10.418;2022-12-24T02:42:55;5.47;;;1.70;;
39994;SDS011;25686;51.908;10.418;2022-12-24T02:44:59;6.18;;;1.88;;
39994;SDS011;25686;51.908;10.418;2022-12-24T02:47:01;5.80;;;1.98;;
39994;SDS011;25686;51.908;10.418;2022-12-24T02:49:02;6.82;;;1.90;;
39994;SDS011;25686;51.908;10.418;2022-12-24T02:51:05;5.03;;;1.80;;
39994;SDS011;25686;51.908;10.418;2022-12-24T02:53:08;3.88;;;1.73;;
39994;SDS011;25686;51.908;10.418;2022-12-24T02:55:17;5.28;;;2.10;;
39994;SDS011;25686;51.908;10.418;2022-12-24T02:57:22;6.15;;;1.83;;
39994;SDS011;25686;51.908;10.418;2022-12-24T03:03:44;7.85;;;2.50;;
39994;SDS011;25686;51.908;10.418;2022-12-24T03:05:48;9.75;;;2.80;;
39994;SDS011;25686;51.908;10.418;2022-12-24T03:10:03;8.77;;;2.83;;
39994;SDS011;25686;51.908;10.418;2022-12-24T03:12:11;5.50;;;2.40;;
39994;SDS011;25686;51.908;10.418;2022-12-24T03:14:13;6.80;;;2.30;;
39994;SDS011;25686;51.908;10.418;2022-12-24T03:16:15;8.48;;;2.50;;
39994;SDS011;25686;51.908;10.418;2022-12-24T03:18:18;7.47;;;3.08;;
39994;SDS011;25686;51.908;10.418;2022-12-24T03:20:21;7.63;;;2.50;;
39994;SDS011;25686;51.908;10.418;2022-12-24T03:22:24;7.07;;;2.45;;
39994;SDS011;25686;51.908;10.418;2022-12-24T03:24:26;7.28;;;2.50;;
39994;SDS011;25686;51.908;10.418;2022-12-24T03:26:28;5.97;;;2.00;;
39994;SDS011;25686;51.908;10.418;2022-12-24T03:28:30;6.03;;;2.03;;
39994;SDS011;25686;51.908;10.418;2022-12-24T03:30:31;5.28;;;1.90;;
39994;SDS011;25686;51.908;10.418;2022-12-24T03:32:32;8.02;;;2.28;;
39994;SDS011;25686;51.908;10.418;2022-12-24T03:34:33;10.23;;;2.50;;
39994;SDS011;25686;51.908;10.418;2022-12-24T03:36:34;9.07;;;2.72;;
39994;SDS011;25686;51.908;10.418;2022-12-24T03:38:35;10.98;;;2.95;;
39994;SDS011;25686;51.908;10.418;2022-12-24T03:40:36;8.32;;;2.90;;
39994;SDS011;25686;51.908;10.418;2022-12-24T03:42:37;11.85;;;2.85;;
39994;SDS011;25686;51.908;10.418;2022-12-24T03:44:38;9.85;;;3.00;;
39994;SDS011;25686;51.908;10.418;2022-12-24T03:46:39;15.68;;;3.22;;
39994;SDS011;25686;51.908;10.418;2022-12-24T03:48:40;9.10;;;3.03;;
39994;SDS011;25686;51.908;10.418;2022-12-24T03:50:41;15.52;;;3.53;;
39994;SDS011;25686;51.908;10.418;2022-12-24T03:52:42;12.05;;;3.42;;
39994;SDS011;25686;51.908;10.418;2022-12-24T03:54:43;14.75;;;4.00;;
39994;SDS011;25686;51.908;10.418;2022-12-24T03:56:44;15.15;;;4.38;;
39994;SDS011;25686;51.908;10.418;2022-12-24T03:58:45;17.77;;;4.72;;
39994;SDS011;25686;51.908;10.418;2022-12-24T04:00:46;13.27;;;4.35;;
39994;SDS011;25686;51.908;10.418;2022-12-24T04:02:47;21.58;;;5.30;;
39994;SDS011;25686;51.908;10.418;2022-12-24T04:04:48;14.30;;;5.63;;
39994;SDS011;25686;51.908;10.418;2022-12-24T04:06:49;21.70;;;5.90;;
39994;SDS011;25686;51.908;10.418;2022-12-24T04:08:50;19.15;;;5.95;;
39994;SDS011;25686;51.908;10.418;2022-12-24T04:10:51;25.25;;;5.30;;
39994;SDS011;25686;51.908;10.418;2022-12-24T04:12:52;20.25;;;6.13;;
39994;SDS011;25686;51.908;10.418;2022-12-24T04:14:52;16.35;;;5.03;;
39994;SDS011;25686;51.908;10.418;2022-12-24T04:16:53;19.27;;;5.75;;
39994;SDS011;25686;51.908;10.418;2022-12-24T04:18:54;19.40;;;5.65;;
39994;SDS011;25686;51.908;10.418;2022-12-24T04:20:55;17.13;;;6.15;;
39994;SDS011;25686;51.908;10.418;2022-12-24T04:22:57;19.63;;;6.75;;
39994;SDS011;25686;51.908;10.418;2022-12-24T04:24:57;31.95;;;7.35;;
39994;SDS011;25686;51.908;10.418;2022-12-24T04:26:58;25.55;;;6.35;;
39994;SDS011;25686;51.908;10.418;2022-12-24T04:28:59;18.80;;;6.60;;
39994;SDS011;25686;51.908;10.418;2022-12-24T04:31:01;23.90;;;7.13;;
39994;SDS011;25686;51.908;10.418;2022-12-24T04:33:03;20.13;;;7.47;;
39994;SDS011;25686;51.908;10.418;2022-12-24T04:35:04;21.52;;;6.65;;
39994;SDS011;25686;51.908;10.418;2022-12-24T04:37:05;25.92;;;7.43;;
39994;SDS011;25686;51.908;10.418;2022-12-24T04:39:06;21.70;;;6.63;;
39994;SDS011;25686;51.908;10.418;2022-12-24T04:41:08;18.98;;;6.90;;
39994;SDS011;25686;51.908;10.418;2022-12-24T04:43:09;20.92;;;6.88;;
39994;SDS011;25686;51.908;10.418;2022-12-24T04:45:10;22.63;;;6.85;;
39994;SDS011;25686;51.908;10.418;2022-12-24T04:47:11;22.38;;;7.15;;
39994;SDS011;25686;51.908;10.418;2022-12-24T04:49:12;18.55;;;6.60;;
39994;SDS011;25686;51.908;10.418;2022-12-24T04:51:13;24.48;;;6.82;;
39994;SDS011;25686;51.908;10.418;2022-12-24T04:53:15;24.25;;;6.68;;
39994;SDS011;25686;51.908;10.418;2022-12-24T04:55:16;18.25;;;5.55;;
39994;SDS011;25686;51.908;10.418;2022-12-24T04:57:17;22.88;;;5.75;;
39994;SDS011;25686;51.908;10.418;2022-12-24T04:59:18;15.50;;;5.00;;
39994;SDS011;25686;51.908;10.418;2022-12-24T05:01:20;18.40;;;5.30;;
39994;SDS011;25686;51.908;10.418;2022-12-24T05:03:21;15.80;;;4.65;;
39994;SDS011;25686;51.908;10.418;2022-12-24T05:05:22;15.23;;;5.10;;
39994;SDS011;25686;51.908;10.418;2022-12-24T05:07:23;18.98;;;4.95;;
39994;SDS011;25686;51.908;10.418;2022-12-24T05:09:24;18.40;;;4.82;;
39994;SDS011;25686;51.908;10.418;2022-12-24T05:11:25;18.35;;;5.25;;
39994;SDS011;25686;51.908;10.418;2022-12-24T05:13:27;20.80;;;5.03;;
39994;SDS011;25686;51.908;10.418;2022-12-24T05:15:28;20.38;;;4.72;;
39994;SDS011;25686;51.908;10.418;2022-12-24T05:17:29;19.73;;;5.78;;
39994;SDS011;25686;51.908;10.418;2022-12-24T05:19:30;25.70;;;5.53;;
39994;SDS011;25686;51.908;10.418;2022-12-24T05:21:31;17.98;;;4.95;;
39994;SDS011;25686;51.908;10.418;2022-12-24T05:23:31;20.80;;;5.65;;
39994;SDS011;25686;51.908;10.418;2022-12-24T05:25:51;18.55;;;5.35;;
39994;SDS011;25686;51.908;10.418;2022-12-24T05:28:11;26.52;;;5.72;;
39994;SDS011;25686;51.908;10.418;2022-12-24T05:30:12;23.45;;;6.75;;
39994;SDS011;25686;51.908;10.418;2022-12-24T05:32:13;16.98;;;5.60;;
39994;SDS011;25686;51.908;10.418;2022-12-24T05:34:14;17.65;;;6.20;;
39994;SDS011;25686;51.908;10.418;2022-12-24T05:36:15;26.27;;;6.05;;
39994;SDS011;25686;51.908;10.418;2022-12-24T05:38:16;24.38;;;6.80;;
39994;SDS011;25686;51.908;10.418;2022-12-24T05:40:17;30.88;;;6.75;;
39994;SDS011;25686;51.908;10.418;2022-12-24T05:42:18;26.13;;;6.57;;
39994;SDS011;25686;51.908;10.418;2022-12-24T05:44:19;24.63;;;7.07;;
39994;SDS011;25686;51.908;10.418;2022-12-24T05:46:21;29.98;;;7.70;;
39994;SDS011;25686;51.908;10.418;2022-12-24T05:48:22;30.83;;;7.60;;
39994;SDS011;25686;51.908;10.418;2022-12-24T05:50:23;27.77;;;7.50;;
39994;SDS011;25686;51.908;10.418;2022-12-24T05:52:24;24.75;;;7.45;;
39994;SDS011;25686;51.908;10.418;2022-12-24T05:54:25;21.77;;;7.25;;
39994;SDS011;25686;51.908;10.418;2022-12-24T05:56:26;23.92;;;7.10;;
39994;SDS011;25686;51.908;10.418;2022-12-24T05:58:27;25.65;;;7.38;;
39994;SDS011;25686;51.908;10.418;2022-12-24T06:00:28;24.75;;;7.35;;
39994;SDS011;25686;51.908;10.418;2022-12-24T06:02:28;31.90;;;7.00;;
39994;SDS011;25686;51.908;10.418;2022-12-24T06:04:29;30.35;;;7.20;;
39994;SDS011;25686;51.908;10.418;2022-12-24T06:06:30;23.20;;;6.82;;
39994;SDS011;25686;51.908;10.418;2022-12-24T06:08:32;28.20;;;7.88;;
39994;SDS011;25686;51.908;10.418;2022-12-24T06:10:33;30.95;;;7.90;;
39994;SDS011;25686;51.908;10.418;2022-12-24T06:12:34;27.45;;;7.25;;
39994;SDS011;25686;51.908;10.418;2022-12-24T06:14:35;34.67;;;7.93;;
39994;SDS011;25686;51.908;10.418;2022-12-24T06:16:36;24.88;;;7.25;;
39994;SDS011;25686;51.908;10.418;2022-12-24T06:18:37;29.65;;;7.13;;
39994;SDS011;25686;51.908;10.418;2022-12-24T06:20:38;26.33;;;7.30;;
39994;SDS011;25686;51.908;10.418;2022-12-24T06:22:39;26.70;;;6.97;;
39994;SDS011;25686;51.908;10.418;2022-12-24T06:24:40;31.98;;;7.82;;
39994;SDS011;25686;51.908;10.418;2022-12-24T06:26:41;29.40;;;7.63;;
39994;SDS011;25686;51.908;10.418;2022-12-24T06:28:43;29.60;;;7.35;;
39994;SDS011;25686;51.908;10.418;2022-12-24T06:30:48;35.08;;;7.10;;
39994;SDS011;25686;51.908;10.418;2022-12-24T06:32:49;31.38;;;7.53;;
39994;SDS011;25686;51.908;10.418;2022-12-24T06:34:50;25.63;;;7.50;;
39994;SDS011;25686;51.908;10.418;2022-12-24T06:36:51;24.63;;;7.03;;
39994;SDS011;25686;51.908;10.418;2022-12-24T06:38:52;31.58;;;7.38;;
39994;SDS011;25686;51.908;10.418;2022-12-24T06:40:53;26.48;;;7.15;;
39994;SDS011;25686;51.908;10.418;2022-12-24T06:42:54;26.95;;;7.05;;
39994;SDS011;25686;51.908;10.418;2022-12-24T06:44:55;30.98;;;7.47;;
39994;SDS011;25686;51.908;10.418;2022-12-24T06:46:56;27.92;;;7.95;;
39994;SDS011;25686;51.908;10.418;2022-12-24T06:48:57;24.83;;;7.03;;
39994;SDS011;25686;51.908;10.418;2022-12-24T06:51:00;36.15;;;7.90;;
39994;SDS011;25686;51.908;10.418;2022-12-24T06:53:01;26.63;;;7.13;;
39994;SDS011;25686;51.908;10.418;2022-12-24T06:55:03;29.25;;;7.30;;
39994;SDS011;25686;51.908;10.418;2022-12-24T06:57:04;29.70;;;7.78;;
39994;SDS011;25686;51.908;10.418;2022-12-24T06:59:06;34.03;;;7.45;;
39994;SDS011;25686;51.908;10.418;2022-12-24T07:01:08;32.33;;;7.38;;
39994;SDS011;25686;51.908;10.418;2022-12-24T07:03:09;21.73;;;7.03;;
39994;SDS011;25686;51.908;10.418;2022-12-24T07:05:11;26.65;;;7.15;;
39994;SDS011;25686;51.908;10.418;2022-12-24T07:07:12;25.73;;;6.60;;
39994;SDS011;25686;51.908;10.418;2022-12-24T07:09:13;25.15;;;6.82;;
39994;SDS011;25686;51.908;10.418;2022-12-24T07:11:14;26.30;;;6.38;;
39994;SDS011;25686;51.908;10.418;2022-12-24T07:13:16;32.28;;;7.88;;
39994;SDS011;25686;51.908;10.418;2022-12-24T07:15:17;24.42;;;7.20;;
39994;SDS011;25686;51.908;10.418;2022-12-24T07:17:18;27.52;;;7.05;;
39994;SDS011;25686;51.908;10.418;2022-12-24T07:19:19;22.58;;;6.28;;
39994;SDS011;25686;51.908;10.418;2022-12-24T07:21:20;31.25;;;5.60;;
39994;SDS011;25686;51.908;10.418;2022-12-24T07:23:21;28.45;;;6.15;;
39994;SDS011;25686;51.908;10.418;2022-12-24T07:25:21;28.83;;;6.00;;
39994;SDS011;25686;51.908;10.418;2022-12-24T07:27:22;26.58;;;6.07;;
39994;SDS011;25686;51.908;10.418;2022-12-24T07:29:23;27.63;;;5.90;;
39994;SDS011;25686;51.908;10.418;2022-12-24T07:31:24;22.75;;;5.60;;
39994;SDS011;25686;51.908;10.418;2022-12-24T07:33:25;32.92;;;6.32;;
39994;SDS011;25686;51.908;10.418;2022-12-24T07:35:26;30.20;;;6.47;;
39994;SDS011;25686;51.908;10.418;2022-12-24T07:37:27;27.25;;;6.88;;
39994;SDS011;25686;51.908;10.418;2022-12-24T07:39:28;21.17;;;5.93;;
39994;SDS011;25686;51.908;10.418;2022-12-24T07:41:29;29.42;;;6.25;;
39994;SDS011;25686;51.908;10.418;2022-12-24T07:43:31;31.77;;;6.85;;
39994;SDS011;25686;51.908;10.418;2022-12-24T07:45:32;21.90;;;5.55;;
39994;SDS011;25686;51.908;10.418;2022-12-24T07:47:33;26.98;;;6.25;;
39994;SDS011;25686;51.908;10.418;2022-12-24T07:49:34;36.40;;;7.18;;
39994;SDS011;25686;51.908;10.418;2022-12-24T07:51:35;27.75;;;6.80;;
39994;SDS011;25686;51.908;10.418;2022-12-24T07:53:36;26.08;;;6.13;;
39994;SDS011;25686;51.908;10.418;2022-12-24T07:55:38;32.22;;;5.88;;
39994;SDS011;25686;51.908;10.418;2022-12-24T07:57:38;25.13;;;5.47;;
39994;SDS011;25686;51.908;10.418;2022-12-24T07:59:39;26.58;;;6.53;;
39994;SDS011;25686;51.908;10.418;2022-12-24T08:01:40;23.88;;;6.18;;
39994;SDS011;25686;51.908;10.418;2022-12-24T08:03:41;23.45;;;6.88;;
39994;SDS011;25686;51.908;10.418;2022-12-24T08:05:42;38.22;;;6.72;;
39994;SDS011;25686;51.908;10.418;2022-12-24T08:07:44;24.05;;;5.32;;
39994;SDS011;25686;51.908;10.418;2022-12-24T08:09:45;25.27;;;5.93;;
39994;SDS011;25686;51.908;10.418;2022-12-24T08:11:45;27.60;;;6.13;;
39994;SDS011;25686;51.908;10.418;2022-12-24T08:13:46;23.98;;;5.50;;
39994;SDS011;25686;51.908;10.418;2022-12-24T08:15:47;26.27;;;5.63;;
39994;SDS011;25686;51.908;10.418;2022-12-24T08:17:48;28.88;;;6.30;;
39994;SDS011;25686;51.908;10.418;2022-12-24T08:19:49;25.63;;;5.63;;
39994;SDS011;25686;51.908;10.418;2022-12-24T08:21:50;24.40;;;6.10;;
39994;SDS011;25686;51.908;10.418;2022-12-24T08:23:51;30.38;;;6.50;;
39994;SDS011;25686;51.908;10.418;2022-12-24T08:25:52;25.10;;;6.10;;
39994;SDS011;25686;51.908;10.418;2022-12-24T08:27:53;25.92;;;5.95;;
39994;SDS011;25686;51.908;10.418;2022-12-24T08:29:54;27.35;;;6.47;;
39994;SDS011;25686;51.908;10.418;2022-12-24T08:31:55;28.80;;;6.15;;
39994;SDS011;25686;51.908;10.418;2022-12-24T08:33:56;29.73;;;6.07;;
39994;SDS011;25686;51.908;10.418;2022-12-24T08:35:57;28.80;;;5.80;;
39994;SDS011;25686;51.908;10.418;2022-12-24T08:37:58;30.55;;;6.53;;
39994;SDS011;25686;51.908;10.418;2022-12-24T08:39:59;26.10;;;6.40;;
39994;SDS011;25686;51.908;10.418;2022-12-24T08:42:00;28.52;;;6.47;;
39994;SDS011;25686;51.908;10.418;2022-12-24T08:44:01;26.33;;;7.15;;
39994;SDS011;25686;51.908;10.418;2022-12-24T08:46:03;29.45;;;5.90;;
39994;SDS011;25686;51.908;10.418;2022-12-24T08:48:04;27.58;;;6.18;;
39994;SDS011;25686;51.908;10.418;2022-12-24T08:50:05;30.40;;;5.57;;
39994;SDS011;25686;51.908;10.418;2022-12-24T08:52:07;30.88;;;6.85;;
39994;SDS011;25686;51.908;10.418;2022-12-24T08:54:08;28.52;;;6.78;;
39994;SDS011;25686;51.908;10.418;2022-12-24T08:56:09;30.25;;;6.47;;
39994;SDS011;25686;51.908;10.418;2022-12-24T08:58:10;31.35;;;6.93;;
39994;SDS011;25686;51.908;10.418;2022-12-24T09:00:11;24.83;;;5.88;;
39994;SDS011;25686;51.908;10.418;2022-12-24T09:02:12;25.33;;;6.47;;
39994;SDS011;25686;51.908;10.418;2022-12-24T09:04:13;26.60;;;6.25;;
39994;SDS011;25686;51.908;10.418;2022-12-24T09:06:14;24.98;;;6.18;;
39994;SDS011;25686;51.908;10.418;2022-12-24T09:08:15;35.55;;;6.53;;
39994;SDS011;25686;51.908;10.418;2022-12-24T09:10:16;22.83;;;6.13;;
39994;SDS011;25686;51.908;10.418;2022-12-24T09:12:17;31.60;;;6.68;;
39994;SDS011;25686;51.908;10.418;2022-12-24T09:14:18;26.80;;;6.30;;
39994;SDS011;25686;51.908;10.418;2022-12-24T09:16:19;31.75;;;6.25;;
39994;SDS011;25686;51.908;10.418;2022-12-24T09:18:20;21.08;;;6.00;;
39994;SDS011;25686;51.908;10.418;2022-12-24T09:20:21;25.75;;;5.97;;
39994;SDS011;25686;51.908;10.418;2022-12-24T09:22:22;21.10;;;5.28;;
39994;SDS011;25686;51.908;10.418;2022-12-24T09:24:23;25.55;;;6.60;;
39994;SDS011;25686;51.908;10.418;2022-12-24T09:26:25;28.00;;;6.75;;
39994;SDS011;25686;51.908;10.418;2022-12-24T09:28:28;20.50;;;6.13;;
39994;SDS011;25686;51.908;10.418;2022-12-24T09:30:30;33.10;;;6.90;;
39994;SDS011;25686;51.908;10.418;2022-12-24T09:32:31;29.20;;;6.68;;
39994;SDS011;25686;51.908;10.418;2022-12-24T09:34:32;25.73;;;5.78;;
39994;SDS011;25686;51.908;10.418;2022-12-24T09:36:33;19.25;;;5.47;;
39994;SDS011;25686;51.908;10.418;2022-12-24T09:38:35;20.67;;;5.60;;
39994;SDS011;25686;51.908;10.418;2022-12-24T09:40:37;18.33;;;5.40;;
39994;SDS011;25686;51.908;10.418;2022-12-24T09:44:46;12.80;;;4.57;;
39994;SDS011;25686;51.908;10.418;2022-12-24T09:46:48;16.83;;;4.20;;
39994;SDS011;25686;51.908;10.418;2022-12-24T09:48:53;14.32;;;4.20;;
39994;SDS011;25686;51.908;10.418;2022-12-24T09:51:02;12.55;;;4.00;;
39994;SDS011;25686;51.908;10.418;2022-12-24T09:53:17;15.32;;;3.83;;
39994;SDS011;25686;51.908;10.418;2022-12-24T09:57:28;12.57;;;4.18;;
39994;SDS011;25686;51.908;10.418;2022-12-24T09:59:38;12.00;;;3.95;;
39994;SDS011;25686;51.908;10.418;2022-12-24T10:01:40;12.75;;;3.88;;
39994;SDS011;25686;51.908;10.418;2022-12-24T10:03:41;12.98;;;4.32;;
39994;SDS011;25686;51.908;10.418;2022-12-24T10:06:00;14.82;;;3.72;;
39994;SDS011;25686;51.908;10.418;2022-12-24T10:08:26;16.10;;;3.97;;
39994;SDS011;25686;51.908;10.418;2022-12-24T10:10:29;10.45;;;3.53;;
39994;SDS011;25686;51.908;10.418;2022-12-24T10:12:43;13.40;;;3.38;;
39994;SDS011;25686;51.908;10.418;2022-12-24T10:14:50;8.45;;;2.90;;
39994;SDS011;25686;51.908;10.418;2022-12-24T10:19:02;8.98;;;2.60;;
39994;SDS011;25686;51.908;10.418;2022-12-24T10:21:15;5.97;;;2.30;;
39994;SDS011;25686;51.908;10.418;2022-12-24T10:23:18;8.25;;;2.47;;
39994;SDS011;25686;51.908;10.418;2022-12-24T10:25:28;7.10;;;2.25;;
39994;SDS011;25686;51.908;10.418;2022-12-24T10:27:32;7.43;;;2.30;;
39994;SDS011;25686;51.908;10.418;2022-12-24T10:29:35;8.02;;;2.30;;
39994;SDS011;25686;51.908;10.418;2022-12-24T10:31:43;9.35;;;2.88;;
39994;SDS011;25686;51.908;10.418;2022-12-24T10:33:49;7.88;;;2.63;;
39994;SDS011;25686;51.908;10.418;2022-12-24T10:35:52;7.05;;;3.17;;
39994;SDS011;25686;51.908;10.418;2022-12-24T10:37:54;9.98;;;3.25;;
39994;SDS011;25686;51.908;10.418;2022-12-24T10:39:57;8.25;;;2.88;;
39994;SDS011;25686;51.908;10.418;2022-12-24T10:41:58;9.23;;;2.95;;
39994;SDS011;25686;51.908;10.418;2022-12-24T10:44:00;10.38;;;3.17;;
39994;SDS011;25686;51.908;10.418;2022-12-24T10:46:02;9.55;;;3.20;;
39994;SDS011;25686;51.908;10.418;2022-12-24T10:48:05;7.85;;;3.00;;
39994;SDS011;25686;51.908;10.418;2022-12-24T10:50:09;10.98;;;3.13;;
39994;SDS011;25686;51.908;10.418;2022-12-24T10:52:14;9.00;;;3.35;;
39994;SDS011;25686;51.908;10.418;2022-12-24T10:54:20;8.70;;;3.70;;
39994;SDS011;25686;51.908;10.418;2022-12-24T10:56:21;15.43;;;4.68;;
39994;SDS011;25686;51.908;10.418;2022-12-24T10:58:22;14.07;;;3.72;;
39994;SDS011;25686;51.908;10.418;2022-12-24T11:00:23;13.82;;;4.30;;
39994;SDS011;25686;51.908;10.418;2022-12-24T11:02:42;15.32;;;4.47;;
39994;SDS011;25686;51.908;10.418;2022-12-24T11:04:45;11.75;;;4.57;;
39994;SDS011;25686;51.908;10.418;2022-12-24T11:08:53;7.70;;;1.42;;
39994;SDS011;25686;51.908;10.418;2022-12-24T11:11:15;6.90;;;2.00;;
39994;SDS011;25686;51.908;10.418;2022-12-24T11:13:25;4.25;;;1.60;;
39994;SDS011;25686;51.908;10.418;2022-12-24T11:15:28;6.43;;;2.30;;
39994;SDS011;25686;51.908;10.418;2022-12-24T11:17:30;9.65;;;2.08;;
39994;SDS011;25686;51.908;10.418;2022-12-24T11:19:31;5.00;;;2.10;;
39994;SDS011;25686;51.908;10.418;2022-12-24T11:21:34;5.05;;;1.35;;
39994;SDS011;25686;51.908;10.418;2022-12-24T11:23:35;2.97;;;1.20;;
39994;SDS011;25686;51.908;10.418;2022-12-24T11:25:37;2.58;;;1.10;;
39994;SDS011;25686;51.908;10.418;2022-12-24T11:27:41;5.57;;;1.10;;
39994;SDS011;25686;51.908;10.418;2022-12-24T11:29:43;3.42;;;1.40;;
39994;SDS011;25686;51.908;10.418;2022-12-24T11:31:44;5.57;;;1.38;;
39994;SDS011;25686;51.908;10.418;2022-12-24T11:33:46;2.92;;;1.20;;
39994;SDS011;25686;51.908;10.418;2022-12-24T11:35:49;3.40;;;1.80;;
39994;SDS011;25686;51.908;10.418;2022-12-24T11:40:04;3.80;;;1.42;;
39994;SDS011;25686;51.908;10.418;2022-12-24T11:42:06;4.20;;;1.40;;
39994;SDS011;25686;51.908;10.418;2022-12-24T11:44:25;4.07;;;1.60;;
39994;SDS011;25686;51.908;10.418;2022-12-24T11:48:29;5.07;;;1.27;;
39994;SDS011;25686;51.908;10.418;2022-12-24T11:50:31;5.15;;;1.70;;
39994;SDS011;25686;51.908;10.418;2022-12-24T11:52:34;3.70;;;2.10;;
39994;SDS011;25686;51.908;10.418;2022-12-24T11:56:56;8.77;;;2.80;;
39994;SDS011;25686;51.908;10.418;2022-12-24T11:58:59;13.98;;;3.50;;
39994;SDS011;25686;51.908;10.418;2022-12-24T12:03:27;15.05;;;4.80;;
39994;SDS011;25686;51.908;10.418;2022-12-24T12:05:33;16.33;;;5.13;;
39994;SDS011;25686;51.908;10.418;2022-12-24T12:07:35;21.13;;;5.80;;
39994;SDS011;25686;51.908;10.418;2022-12-24T12:09:38;17.42;;;5.90;;
39994;SDS011;25686;51.908;10.418;2022-12-24T12:11:40;18.45;;;5.88;;
39994;SDS011;25686;51.908;10.418;2022-12-24T12:13:42;20.48;;;6.22;;
39994;SDS011;25686;51.908;10.418;2022-12-24T12:18:22;17.02;;;6.40;;
39994;SDS011;25686;51.908;10.418;2022-12-24T12:20:59;23.13;;;6.38;;
39994;SDS011;25686;51.908;10.418;2022-12-24T12:22:54;21.85;;;7.55;;
39994;SDS011;25686;51.908;10.418;2022-12-24T12:24:56;21.33;;;6.68;;
39994;SDS011;25686;51.908;10.418;2022-12-24T12:27:04;25.02;;;7.20;;
39994;SDS011;25686;51.908;10.418;2022-12-24T12:29:24;23.23;;;7.75;;
39994;SDS011;25686;51.908;10.418;2022-12-24T12:33:38;28.20;;;7.60;;
39994;SDS011;25686;51.908;10.418;2022-12-24T12:35:40;22.85;;;8.32;;
39994;SDS011;25686;51.908;10.418;2022-12-24T12:37:42;30.13;;;7.05;;
39994;SDS011;25686;51.908;10.418;2022-12-24T12:39:44;24.45;;;7.55;;
39994;SDS011;25686;51.908;10.418;2022-12-24T12:47:03;26.38;;;7.30;;